Time;durP1;ratioP1;P1;durP2;ratioP2;P2;SDS_P1;SDS_P2;PMS_P1;PMS_P2;Temp;Humidity;BMP_temperature;BMP_pressure;BME280_temperature;BME280_humidity;BME280_pressure;Samples;Min_cycle;Max_cycle;Signal;HPM_P1;HPM_P2
2022/09/10 00:02:13;;;;;;;;;55.00;44.00;;;;;24.71;51.70;98519.72;6161777;28;98151;-56
2022/09/10 00:05:18;;;;;;;;;53.60;44.40;;;;;24.70;51.58;98516.13;6161134;28;97741;-54
2022/09/10 00:08:21;;;;;;;;;52.00;42.25;;;;;24.70;51.27;98515.31;6162058;28;97395;-57
2022/09/10 00:11:26;;;;;;;;;54.25;45.25;;;;;24.70;51.27;98513.38;6161333;28;97171;-56
2022/09/10 00:14:30;;;;;;;;;60.60;48.00;;;;;24.71;51.60;98508.69;6161310;28;96650;-55
2022/09/10 00:17:35;;;;;;;;;57.25;46.25;;;;;24.70;51.46;98507.06;6161730;28;97210;-58
2022/09/10 00:20:44;;;;;;;;;56.75;46.50;;;;;24.67;51.45;98494.75;6161546;28;97485;-57
2022/09/10 00:23:47;;;;;;;;;49.00;39.60;;;;;24.64;51.51;98495.38;6161904;28;97531;-54
2022/09/10 00:26:51;;;;;;;;;62.00;49.60;;;;;24.61;51.34;98507.06;6160357;28;98628;-55
2022/09/10 00:29:54;;;;;;;;;53.40;43.60;;;;;24.58;51.60;98505.75;6161736;28;97512;-56
2022/09/10 00:32:59;;;;;;;;;52.40;43.60;;;;;24.57;51.66;98508.84;6160044;28;96655;-54
2022/09/10 00:36:14;;;;;;;;;56.40;46.40;;;;;24.53;51.67;98499.59;6160894;28;97383;-60
2022/09/10 00:39:19;;;;;;;;;55.40;45.60;;;;;24.51;51.68;98493.59;6161595;28;97443;-57
2022/09/10 00:42:22;;;;;;;;;61.40;49.40;;;;;24.50;51.70;98498.28;6160488;28;96478;-56
2022/09/10 00:45:28;;;;;;;;;57.80;47.60;;;;;24.49;51.58;98507.69;6175539;28;98591;-55
2022/09/10 00:48:32;;;;;;;;;52.80;44.00;;;;;24.46;51.76;98504.75;6162734;28;97377;-59
2022/09/10 00:51:37;;;;;;;;;56.25;46.25;;;;;24.44;51.72;98498.75;6164313;28;97531;-54
2022/09/10 00:54:43;;;;;;;;;56.00;46.00;;;;;24.43;51.84;98494.41;6164718;28;97448;-57
2022/09/10 00:57:49;;;;;;;;;51.00;42.20;;;;;24.41;51.74;98493.88;6163737;28;97085;-57
2022/09/10 01:00:56;;;;;;;;;52.00;43.00;;;;;24.39;51.91;98501.66;6164413;28;97020;-58
2022/09/10 01:04:00;;;;;;;;;51.60;43.00;;;;;24.40;52.04;98497.78;6163800;28;97424;-57
2022/09/10 01:07:08;;;;;;;;;53.00;44.00;;;;;24.38;51.90;98503.63;6162681;28;97403;-54
2022/09/10 01:10:16;;;;;;;;;58.00;47.60;;;;;24.31;51.84;98489.50;6163837;28;96794;-56
2022/09/10 01:13:33;;;;;;;;;52.00;42.80;;;;;24.36;51.95;98507.81;6161652;28;97375;-62
2022/09/10 01:16:48;;;;;;;;;53.40;43.80;;;;;24.32;51.86;98506.84;6161887;28;97671;-56
2022/09/10 01:20:17;;;;;;;;;63.00;51.00;;;;;24.29;52.11;98513.00;6163216;28;97339;-57
2022/09/10 01:23:59;;;;;;;;;57.00;46.00;;;;;24.27;52.05;98502.28;6155122;28;97000;-57
2022/09/10 01:27:29;;;;;;;;;52.00;43.80;;;;;24.29;52.16;98499.22;6164963;28;97586;-57
2022/09/10 01:30:40;;;;;;;;;57.75;47.75;;;;;24.32;51.84;98495.81;6179430;28;96934;-56
2022/09/10 01:33:52;;;;;;;;;56.50;46.50;;;;;24.31;52.12;98489.50;6163003;28;97200;-54
2022/09/10 01:37:03;;;;;;;;;53.00;44.00;;;;;24.30;51.84;98493.38;6163683;28;97460;-56
2022/09/10 01:40:08;;;;;;;;;57.00;47.60;;;;;24.31;52.30;98502.47;6164042;28;97089;-55
2022/09/10 01:43:12;;;;;;;;;53.25;44.50;;;;;24.31;52.18;98499.69;6164139;28;97480;-56
2022/09/10 01:46:40;;;;;;;;;56.00;46.00;;;;;24.31;52.20;98492.25;6163384;28;97403;-57
2022/09/10 01:49:59;;;;;;;;;52.00;43.60;;;;;24.33;51.90;98491.94;6164578;28;96469;-56
2022/09/10 01:53:20;;;;;;;;;56.20;45.20;;;;;24.34;51.92;98491.59;6163761;28;96471;-56
2022/09/10 01:56:37;;;;;;;;;51.33;42.33;;;;;24.35;51.82;98498.72;6163940;28;96725;-58
2022/09/10 01:59:53;;;;;;;;;55.25;44.00;;;;;24.35;51.95;98493.22;6161730;28;97515;-56
2022/09/10 02:03:06;;;;;;;;;55.00;45.75;;;;;24.35;51.89;98500.69;6163758;28;97237;-54
2022/09/10 02:06:15;;;;;;;;;63.20;51.20;;;;;24.37;51.92;98502.00;6162866;28;96503;-55
2022/09/10 02:09:19;;;;;;;;;54.00;44.00;;;;;24.35;52.00;98508.94;6164374;28;97466;-54
2022/09/10 02:12:23;;;;;;;;;61.40;49.60;;;;;24.34;52.20;98491.59;6162009;28;96429;-57
2022/09/10 02:15:59;;;;;;;;;57.80;47.40;;;;;24.33;52.53;98481.72;6148950;28;97414;-54
2022/09/10 02:19:10;;;;;;;;;52.50;43.00;;;;;24.34;52.66;98479.75;6155738;28;96947;-57
2022/09/10 02:22:14;;;;;;;;;57.00;46.00;;;;;24.32;52.43;98474.59;6162656;28;96856;-54
2022/09/10 02:25:18;;;;;;;;;50.80;42.00;;;;;24.33;52.54;98465.19;6162668;28;97506;-56
2022/09/10 02:28:22;;;;;;;;;50.00;42.00;;;;;24.36;52.62;98464.53;6164985;28;96912;-54
2022/09/10 02:31:25;;;;;;;;;52.00;43.80;;;;;24.35;52.53;98454.66;6162536;28;96881;-57
2022/09/10 02:34:31;;;;;;;;;53.00;44.00;;;;;24.36;52.25;98458.22;6161439;28;97955;-55
2022/09/10 02:37:36;;;;;;;;;50.80;41.60;;;;;24.34;52.41;98452.22;6162322;28;96640;-54
2022/09/10 02:40:39;;;;;;;;;57.50;47.50;;;;;24.34;52.13;98450.28;6164325;28;96764;-55
2022/09/10 02:43:45;;;;;;;;;53.80;44.00;;;;;24.37;52.54;98443.31;6163205;28;96992;-54
2022/09/10 02:46:50;;;;;;;;;49.60;42.00;;;;;24.32;52.60;98435.22;6161327;28;97394;-56
2022/09/10 02:49:55;;;;;;;;;53.20;44.60;;;;;24.40;52.57;98445.41;6177714;28;97204;-55
2022/09/10 02:52:59;;;;;;;;;62.50;50.25;;;;;24.38;52.51;98437.50;6159813;28;98191;-56
2022/09/10 02:56:03;;;;;;;;;56.60;46.00;;;;;24.37;52.47;98440.56;6160030;28;98636;-55
2022/09/10 02:59:07;;;;;;;;;52.80;44.00;;;;;24.34;52.45;98441.19;6160473;28;97129;-55
2022/09/10 03:02:11;;;;;;;;;56.00;46.00;;;;;24.32;52.50;98454.50;6159748;28;97069;-57
2022/09/10 03:05:16;;;;;;;;;58.40;47.40;;;;;24.29;52.22;98453.19;6162616;28;97142;-56
2022/09/10 03:08:22;;;;;;;;;51.00;41.00;;;;;24.28;52.49;98454.34;6163492;28;97844;-55
2022/09/10 03:11:26;;;;;;;;;55.60;44.80;;;;;24.28;52.91;98459.03;6161170;28;96923;-57
2022/09/10 03:14:30;;;;;;;;;52.00;43.20;;;;;24.27;52.63;98449.13;6160481;28;97366;-56
2022/09/10 03:17:33;;;;;;;;;56.00;45.60;;;;;24.27;52.63;98443.63;6159982;28;97904;-57
2022/09/10 03:20:40;;;;;;;;;56.00;46.00;;;;;24.28;52.80;98451.59;6168638;28;96705;-55
2022/09/10 03:23:45;;;;;;;;;63.60;51.80;;;;;24.27;52.95;98458.22;6160691;28;97094;-54
2022/09/10 03:26:55;;;;;;;;;51.00;42.40;;;;;24.25;52.84;98451.41;6162331;28;96936;-56
2022/09/10 03:29:59;;;;;;;;;56.50;45.50;;;;;24.27;53.12;98463.72;6176925;28;97601;-55
2022/09/10 03:33:06;;;;;;;;;56.00;46.00;;;;;24.13;52.92;98444.56;6159159;28;99023;-55
2022/09/10 03:36:12;;;;;;;;;56.60;46.00;;;;;24.27;53.21;98449.13;6177207;28;97559;-57
2022/09/10 03:39:18;;;;;;;;;61.20;48.20;;;;;24.26;53.17;98448.31;6161845;28;97414;-55
2022/09/10 03:42:21;;;;;;;;;53.40;43.00;;;;;24.29;53.27;98450.44;6154107;28;97250;-56
2022/09/10 03:45:25;;;;;;;;;56.75;45.75;;;;;24.30;53.10;98454.81;6162068;28;96954;-57
2022/09/10 03:48:29;;;;;;;;;59.25;46.75;;;;;24.30;52.97;98448.47;6161199;28;97107;-57
2022/09/10 03:51:34;;;;;;;;;57.00;46.25;;;;;24.31;53.05;98444.59;6162306;28;97480;-55
2022/09/10 03:54:38;;;;;;;;;57.00;46.00;;;;;24.32;53.10;98446.22;6159106;28;97247;-57
2022/09/10 03:57:42;;;;;;;;;61.20;49.20;;;;;24.31;52.88;98448.16;6159330;28;97200;-56
2022/09/10 04:00:46;;;;;;;;;58.80;47.60;;;;;24.31;52.74;98450.13;6158259;28;97143;-55
2022/09/10 04:03:49;;;;;;;;;59.00;47.00;;;;;24.30;52.89;98445.72;6159157;28;97785;-53
2022/09/10 04:06:54;;;;;;;;;57.80;46.00;;;;;24.29;53.10;98431.16;6159969;28;97181;-56
2022/09/10 04:09:57;;;;;;;;;58.80;47.60;;;;;24.31;53.17;98436.34;6161367;28;98302;-57
2022/09/10 04:13:00;;;;;;;;;59.00;47.25;;;;;24.31;53.14;98436.34;6162021;28;96610;-55
2022/09/10 04:16:05;;;;;;;;;56.00;45.80;;;;;24.31;53.36;98430.81;6158326;28;97549;-55
2022/09/10 04:19:10;;;;;;;;;56.25;46.00;;;;;24.32;53.30;98437.97;6158470;28;97473;-57
2022/09/10 04:22:14;;;;;;;;;63.25;51.00;;;;;24.32;53.21;98444.28;6158858;28;98049;-55
2022/09/10 04:25:19;;;;;;;;;58.50;46.50;;;;;24.29;53.19;98444.91;6158335;28;98031;-55
2022/09/10 04:28:22;;;;;;;;;56.00;45.00;;;;;24.28;53.23;98450.78;6158951;28;98593;-57
2022/09/10 04:31:26;;;;;;;;;58.00;46.00;;;;;24.26;53.07;98440.06;6158494;28;97513;-57
2022/09/10 04:34:36;;;;;;;;;58.00;47.00;;;;;24.25;53.04;98443.13;6158860;28;98353;-57
2022/09/10 04:37:43;;;;;;;;;59.00;47.80;;;;;24.24;53.30;98430.50;6159435;28;96986;-55
2022/09/10 04:40:46;;;;;;;;;55.40;45.40;;;;;24.23;53.39;98424.19;6157930;28;97566;-56
2022/09/10 04:43:50;;;;;;;;;59.40;48.00;;;;;24.22;53.58;98428.06;6158465;28;97488;-54
2022/09/10 04:46:54;;;;;;;;;56.60;46.20;;;;;24.21;53.46;98429.19;6159065;28;97160;-56
2022/09/10 04:49:58;;;;;;;;;55.00;45.00;;;;;24.18;53.37;98421.59;6161219;28;96644;-56
2022/09/10 04:53:03;;;;;;;;;61.00;50.00;;;;;24.17;53.26;98422.72;6160033;28;98565;-56
2022/09/10 04:56:07;;;;;;;;;53.80;44.00;;;;;24.16;53.50;98419.16;6158468;28;97509;-55
2022/09/10 04:59:13;;;;;;;;;54.20;44.20;;;;;24.17;53.25;98422.72;6160326;28;97032;-58
2022/09/10 05:02:18;;;;;;;;;49.00;41.00;;;;;24.16;53.05;98427.41;6152838;28;97228;-56
2022/09/10 05:05:22;;;;;;;;;52.00;43.00;;;;;24.16;53.54;98410.88;6160130;28;97716;-53
2022/09/10 05:08:27;;;;;;;;;51.00;40.40;;;;;24.16;53.38;98418.31;6159282;28;97219;-55
2022/09/10 05:11:32;;;;;;;;;46.50;38.50;;;;;24.15;53.50;98423.00;6160628;28;97550;-55
2022/09/10 05:14:36;;;;;;;;;53.00;44.00;;;;;24.16;53.38;98410.88;6161254;28;97511;-56
2022/09/10 05:17:42;;;;;;;;;48.60;39.80;;;;;24.19;53.49;98405.88;6160450;28;97557;-57
2022/09/10 05:20:46;;;;;;;;;52.00;43.00;;;;;24.19;53.37;98403.91;6160637;28;96955;-57
2022/09/10 05:23:50;;;;;;;;;49.00;41.20;;;;;24.22;53.11;98402.47;6161982;28;97455;-56
2022/09/10 05:26:54;;;;;;;;;47.50;40.50;;;;;24.23;53.38;98409.59;6160569;28;97312;-56
2022/09/10 05:29:58;;;;;;;;;50.75;43.00;;;;;24.26;53.24;98406.19;6160357;28;97714;-56
2022/09/10 05:33:01;;;;;;;;;49.60;42.20;;;;;24.29;53.21;98400.84;6155727;28;97603;-56
2022/09/10 05:36:09;;;;;;;;;49.40;40.60;;;;;24.31;53.09;98406.84;6165297;28;96436;-56
2022/09/10 05:39:15;;;;;;;;;47.20;39.40;;;;;24.32;52.87;98405.72;6164155;28;97533;-54
2022/09/10 05:42:20;;;;;;;;;49.40;41.20;;;;;24.36;52.82;98408.63;6178718;28;97427;-55
2022/09/10 05:45:24;;;;;;;;;45.25;38.50;;;;;24.34;52.74;98406.19;6175288;28;96870;-57
2022/09/10 05:48:28;;;;;;;;;50.60;42.60;;;;;24.41;52.92;98402.97;6163764;28;97511;-57
2022/09/10 05:51:32;;;;;;;;;50.00;42.20;;;;;24.40;52.85;98406.84;6163839;28;97313;-57
2022/09/10 05:54:40;;;;;;;;;43.00;36.00;;;;;24.45;53.10;98412.19;6163836;28;97179;-59
2022/09/10 05:57:44;;;;;;;;;51.60;42.60;;;;;24.48;52.96;98417.88;6179970;28;97399;-58
2022/09/10 06:00:53;;;;;;;;;46.00;39.00;;;;;24.46;52.91;98398.09;6164718;28;97412;-57
2022/09/10 06:03:57;;;;;;;;;47.00;39.00;;;;;24.53;52.90;98409.44;6164531;28;96634;-58
2022/09/10 06:07:01;;;;;;;;;45.80;38.40;;;;;24.55;52.62;98406.38;6163619;28;97102;-58
2022/09/10 06:10:07;;;;;;;;;47.40;40.00;;;;;24.55;52.57;98401.66;6163877;28;97491;-58
2022/09/10 06:13:14;;;;;;;;;45.60;37.00;;;;;24.58;52.71;98401.00;6163601;28;97070;-56
2022/09/10 06:16:18;;;;;;;;;48.50;41.00;;;;;24.59;52.68;98390.78;6176451;28;97768;-55
2022/09/10 06:19:24;;;;;;;;;33.20;30.60;;;;;24.57;52.53;98387.56;6158558;28;97447;-56
2022/09/10 06:22:30;;;;;;;;;50.40;42.00;;;;;24.62;52.70;98401.19;6172843;28;97381;-56
2022/09/10 06:25:35;;;;;;;;;46.75;39.00;;;;;24.66;53.01;98393.88;6161381;28;97541;-56
2022/09/10 06:28:39;;;;;;;;;51.40;43.00;;;;;24.70;52.61;98403.13;6162874;28;96563;-56
2022/09/10 06:31:43;;;;;;;;;49.20;40.80;;;;;24.73;52.84;98396.16;6161388;28;97135;-56
2022/09/10 06:34:47;;;;;;;;;51.00;42.50;;;;;24.74;52.28;98401.31;6170955;28;97025;-58
2022/09/10 06:37:50;;;;;;;;;52.60;43.00;;;;;24.77;52.36;98406.22;6160587;28;97418;-58
2022/09/10 06:40:58;;;;;;;;;51.00;43.00;;;;;24.78;52.32;98410.56;6162484;28;97499;-58
2022/09/10 06:44:03;;;;;;;;;49.00;41.60;;;;;24.67;52.29;98392.75;6161625;28;97320;-55
2022/09/10 06:47:17;;;;;;;;;49.00;41.00;;;;;24.79;52.08;98403.09;6160891;28;97660;-57
2022/09/10 06:50:50;;;;;;;;;51.00;42.00;;;;;24.81;52.39;98409.13;6161281;28;97655;-56
2022/09/10 06:53:54;;;;;;;;;50.00;42.00;;;;;24.81;52.36;98418.19;6167900;28;97895;-56
2022/09/10 06:57:03;;;;;;;;;47.60;40.00;;;;;24.81;52.59;98414.63;6170740;28;97358;-58
2022/09/10 07:00:09;;;;;;;;;49.40;41.00;;;;;24.82;52.82;98419.00;6161087;28;97356;-59
2022/09/10 07:03:14;;;;;;;;;44.67;38.00;;;;;24.81;52.80;98418.19;6163197;28;97480;-58
2022/09/10 07:06:18;;;;;;;;;50.00;42.00;;;;;24.82;52.98;98419.00;6144789;28;96732;-55
2022/09/10 07:09:25;;;;;;;;;53.00;44.50;;;;;24.83;52.76;98423.38;6162055;28;96520;-55
2022/09/10 07:12:38;;;;;;;;;54.40;44.80;;;;;24.83;52.58;98418.66;6178668;28;96534;-58
2022/09/10 07:15:46;;;;;;;;;47.20;40.40;;;;;24.84;52.63;98406.50;6167438;28;97135;-57
2022/09/10 07:18:53;;;;;;;;;50.40;42.20;;;;;24.73;52.60;98390.66;6162947;28;97269;-58
2022/09/10 07:21:58;;;;;;;;;53.00;44.00;;;;;24.89;52.60;98411.06;6163254;28;96598;-58
2022/09/10 07:25:01;;;;;;;;;51.80;43.60;;;;;24.90;52.48;98412.69;6164007;28;97412;-58
2022/09/10 07:28:18;;;;;;;;;49.40;41.00;;;;;24.83;52.33;98401.31;6141208;28;96918;-56
2022/09/10 07:31:26;;;;;;;;;47.80;40.40;;;;;24.89;52.30;98413.81;6161510;28;96561;-58
2022/09/10 07:34:30;;;;;;;;;61.00;47.33;;;;;24.90;52.32;98418.22;6170205;28;96643;-59
2022/09/10 07:37:33;;;;;;;;;51.40;42.40;;;;;24.89;52.38;98419.34;6160125;28;97189;-57
2022/09/10 07:40:39;;;;;;;;;50.20;41.80;;;;;24.89;52.20;98416.59;6144560;28;96735;-56
2022/09/10 07:43:44;;;;;;;;;49.25;41.00;;;;;24.88;52.31;98418.53;6160552;28;97433;-58
2022/09/10 07:46:48;;;;;;;;;53.20;42.60;;;;;24.89;52.07;98422.91;6157591;28;98872;-58
2022/09/10 07:49:52;;;;;;;;;47.50;40.00;;;;;24.90;52.27;98415.44;6159450;28;97507;-57
2022/09/10 07:52:56;;;;;;;;;47.50;40.50;;;;;24.94;52.22;98417.22;6157954;28;98123;-58
2022/09/10 07:56:01;;;;;;;;;49.40;41.00;;;;;24.97;52.55;98424.06;6160350;28;98818;-56
2022/09/10 07:59:10;;;;;;;;;50.60;42.40;;;;;24.98;52.25;98422.88;6157577;28;97535;-56
2022/09/10 08:02:31;;;;;;;;;55.00;45.00;;;;;24.99;51.98;98424.53;6175202;28;97773;-59
2022/09/10 08:05:38;;;;;;;;;50.75;43.00;;;;;24.99;51.90;98427.28;6157491;28;97002;-55
2022/09/10 08:08:42;;;;;;;;;52.00;43.00;;;;;24.84;52.08;98402.94;6157185;28;97407;-54
2022/09/10 08:11:48;;;;;;;;;53.50;44.00;;;;;24.99;52.27;98435.56;6164387;28;97521;-56
2022/09/10 08:14:56;;;;;;;;;47.00;39.50;;;;;24.97;51.92;98430.34;6151980;28;97543;-58
2022/09/10 08:18:01;;;;;;;;;44.80;38.40;;;;;24.95;52.30;98420.78;6158588;28;96859;-56
2022/09/10 08:21:08;;;;;;;;;44.00;37.20;;;;;24.98;52.36;98433.94;6152931;28;97340;-55
2022/09/10 08:24:13;;;;;;;;;43.80;36.20;;;;;24.97;51.78;98429.56;6167181;28;97637;-56
2022/09/10 08:27:20;;;;;;;;;41.00;35.50;;;;;24.93;50.97;98437.66;6158108;28;97281;-56
2022/09/10 08:30:25;;;;;;;;;46.00;39.00;;;;;24.90;50.66;98440.28;6157278;28;97065;-56
2022/09/10 08:33:30;;;;;;;;;42.00;36.00;;;;;24.87;51.26;98435.41;6159659;28;97173;-56
2022/09/10 08:36:33;;;;;;;;;46.00;39.50;;;;;24.83;51.31;98431.63;6157922;28;97538;-57
2022/09/10 08:39:37;;;;;;;;;44.80;39.00;;;;;24.80;51.80;98435.88;6158836;28;98451;-55
2022/09/10 08:42:47;;;;;;;;;50.00;42.20;;;;;24.78;52.01;98434.56;6158255;28;97220;-57
2022/09/10 08:45:56;;;;;;;;;46.00;39.00;;;;;24.76;52.03;98429.38;6170682;28;98356;-55
2022/09/10 08:49:08;;;;;;;;;43.75;38.25;;;;;24.76;51.94;98431.34;6158931;28;96823;-55
2022/09/10 08:52:20;;;;;;;;;42.40;36.40;;;;;24.78;52.33;98420.78;6157109;28;97730;-54
2022/09/10 08:55:30;;;;;;;;;41.50;36.00;;;;;24.80;52.48;98424.03;6160320;28;96597;-56
2022/09/10 08:58:42;;;;;;;;;31.60;30.00;;;;;24.84;52.57;98425.00;6159883;28;97535;-58
2022/09/10 09:01:51;;;;;;;;;40.20;35.40;;;;;24.90;52.68;98423.72;6173510;28;97219;-56
2022/09/10 09:04:59;;;;;;;;;38.40;35.00;;;;;24.88;52.52;98409.44;6160999;28;97512;-57
2022/09/10 09:08:05;;;;;;;;;41.40;36.00;;;;;25.08;52.45;98424.50;6160898;28;96975;-56
2022/09/10 09:11:19;;;;;;;;;33.25;31.25;;;;;25.17;52.21;98426.09;6164756;28;98255;-58
2022/09/10 09:14:38;;;;;;;;;40.67;35.00;;;;;25.24;52.16;98434.69;6158233;28;96786;-56
2022/09/10 09:18:09;;;;;;;;;42.50;36.50;;;;;25.35;51.68;98424.94;6163047;28;97158;-56
2022/09/10 09:21:17;;;;;;;;;39.40;35.00;;;;;25.45;51.86;98424.56;6162784;28;96736;-56
2022/09/10 09:24:24;;;;;;;;;38.60;34.80;;;;;25.59;51.13;98431.84;6164402;28;97604;-58
2022/09/10 09:27:36;;;;;;;;;37.50;34.00;;;;;25.64;50.92;98437.19;6164294;28;96859;-56
2022/09/10 09:30:48;;;;;;;;;37.40;33.00;;;;;25.69;50.95;98432.31;6164235;28;97492;-56
2022/09/10 09:34:00;;;;;;;;;28.75;28.75;;;;;25.64;50.23;98421.44;6164074;28;96984;-56
2022/09/10 09:37:11;;;;;;;;;35.60;32.60;;;;;25.72;50.02;98436.34;6165956;28;96823;-56
2022/09/10 09:40:29;;;;;;;;;39.00;35.00;;;;;25.72;50.43;98437.16;6160501;28;97109;-59
2022/09/10 09:43:48;;;;;;;;;24.00;23.50;;;;;25.69;50.04;98429.53;6125540;28;98249;-58
2022/09/10 09:46:53;;;;;;;;;32.75;31.25;;;;;25.65;50.23;98431.34;6159515;28;96906;-56
2022/09/10 09:49:59;;;;;;;;;36.80;32.80;;;;;25.60;50.42;98433.47;6157487;28;97376;-59
2022/09/10 09:53:02;;;;;;;;;33.40;31.80;;;;;25.58;50.69;98425.53;6165070;28;97417;-59
2022/09/10 09:56:15;;;;;;;;;35.00;32.00;;;;;25.56;51.19;98427.78;6164566;28;98194;-59
2022/09/10 09:59:27;;;;;;;;;34.25;32.25;;;;;25.54;50.97;98420.97;6163750;28;97236;-59
2022/09/10 10:02:30;;;;;;;;;31.60;30.00;;;;;25.56;51.34;98419.50;6154894;28;97191;-58
2022/09/10 10:05:35;;;;;;;;;35.40;32.40;;;;;25.59;51.00;98416.09;6161158;28;97187;-58
2022/09/10 10:08:41;;;;;;;;;34.00;31.40;;;;;25.48;51.28;98384.44;6162251;28;98078;-59
2022/09/10 10:11:50;;;;;;;;;32.60;31.00;;;;;25.76;51.20;98413.25;6162879;28;97244;-57
2022/09/10 10:14:53;;;;;;;;;32.00;31.00;;;;;25.91;50.61;98408.28;6161209;28;97234;-57
2022/09/10 10:17:57;;;;;;;;;29.75;28.75;;;;;26.08;51.30;98402.69;6161756;28;96839;-59
2022/09/10 10:21:16;;;;;;;;;36.00;33.00;;;;;26.29;51.03;98403.56;6159747;28;96637;-56
2022/09/10 10:24:30;;;;;;;;;33.25;32.00;;;;;26.44;49.46;98396.63;6159171;28;97230;-58
2022/09/10 10:27:36;;;;;;;;;31.40;30.60;;;;;26.52;49.35;98404.00;6159103;28;97415;-58
2022/09/10 10:30:41;;;;;;;;;27.50;27.50;;;;;26.61;49.22;98399.22;6162022;28;97276;-57
2022/09/10 10:33:55;;;;;;;;;29.20;29.00;;;;;26.71;48.83;98401.56;6162891;28;96757;-58
2022/09/10 10:37:07;;;;;;;;;19.75;19.75;;;;;26.82;47.34;98401.97;6159653;28;97184;-58
2022/09/10 10:40:22;;;;;;;;;29.40;29.40;;;;;26.89;47.36;98403.06;6162065;28;97720;-58
2022/09/10 10:43:41;;;;;;;;;26.00;25.50;;;;;26.97;46.63;98398.59;6164727;28;96678;-57
2022/09/10 10:46:53;;;;;;;;;29.00;28.00;;;;;27.00;46.92;98400.66;6164686;28;97539;-57
2022/09/10 10:50:07;;;;;;;;;34.00;32.00;;;;;27.06;46.54;98399.31;6164605;28;97062;-57
2022/09/10 10:53:24;;;;;;;;;46.50;40.50;;;;;27.00;45.78;98386.84;6158432;28;97573;-58
2022/09/10 10:56:32;;;;;;;;;23.40;23.00;;;;;27.12;45.02;98400.72;6162450;28;97762;-58
2022/09/10 10:59:51;;;;;;;;;51.00;43.75;;;;;27.13;44.93;98403.13;6164449;28;97058;-59
2022/09/10 11:03:07;;;;;;;;;35.80;33.20;;;;;27.14;45.02;98404.75;6164955;28;96984;-58
2022/09/10 11:06:14;;;;;;;;;27.40;27.40;;;;;27.07;44.90;98395.41;6163071;28;97049;-58
2022/09/10 11:09:25;;;;;;;;;30.00;30.00;;;;;27.13;44.32;98405.88;6163661;28;96990;-60
2022/09/10 11:12:32;;;;;;;;;19.80;19.80;;;;;27.16;44.52;98404.41;6163600;28;96794;-58
2022/09/10 11:15:42;;;;;;;;;31.50;30.00;;;;;27.22;44.32;98400.25;6162780;28;97284;-58
2022/09/10 11:18:50;;;;;;;;;33.20;31.60;;;;;27.30;43.86;98404.91;6163968;28;96751;-58
2022/09/10 11:21:58;;;;;;;;;23.50;23.00;;;;;27.38;43.46;98406.75;6164253;28;96529;-60
2022/09/10 11:25:15;;;;;;;;;36.00;32.80;;;;;27.47;43.85;98399.16;6163784;28;97540;-58
2022/09/10 11:28:25;;;;;;;;;33.20;31.60;;;;;27.54;43.85;98398.63;6140041;28;97327;-58
2022/09/10 11:31:32;;;;;;;;;31.60;30.00;;;;;27.59;42.73;98406.69;6139314;28;97711;-58
2022/09/10 11:34:48;;;;;;;;;32.40;31.00;;;;;27.66;42.75;98395.84;6139675;28;97105;-59
2022/09/10 11:38:01;;;;;;;;;23.80;23.80;;;;;27.73;42.99;98386.97;6142697;28;97319;-57
2022/09/10 11:41:12;;;;;;;;;24.60;24.60;;;;;27.84;42.33;98379.81;6160597;28;97232;-58
2022/09/10 11:44:37;;;;;;;;;36.00;33.25;;;;;27.94;41.97;98377.41;6163219;28;97000;-57
2022/09/10 11:47:45;;;;;;;;;21.40;21.40;;;;;28.13;41.97;98381.53;6162674;28;97370;-58
2022/09/10 11:50:54;;;;;;;;;21.20;21.20;;;;;28.35;41.88;98370.75;6162791;28;96633;-60
2022/09/10 11:53:58;;;;;;;;;25.00;25.00;;;;;28.43;40.37;98364.28;6162096;28;96724;-59
2022/09/10 11:57:10;;;;;;;;;24.00;24.00;;;;;28.73;40.63;98377.81;6159379;28;97331;-61
2022/09/10 12:00:16;;;;;;;;;21.60;20.60;;;;;28.93;40.37;98376.00;6159266;28;97507;-58
2022/09/10 12:03:58;;;;;;;;;20.40;20.40;;;;;29.19;40.18;98377.09;6159848;28;98537;-59
2022/09/10 12:07:10;;;;;;;;;20.00;20.00;;;;;29.46;37.90;98366.31;6158989;28;97752;-58
2022/09/10 12:10:23;;;;;;;;;26.60;26.60;;;;;29.58;36.57;98360.66;6162493;28;97482;-58
2022/09/10 12:13:28;;;;;;;;;21.00;21.00;;;;;29.74;36.46;98368.97;6163047;28;96876;-59
2022/09/10 12:16:37;;;;;;;;;19.75;19.75;;;;;29.83;35.70;98358.47;6161991;28;97182;-58
2022/09/10 12:19:45;;;;;;;;;21.40;21.40;;;;;29.94;35.29;98354.00;6163008;28;96892;-60
2022/09/10 12:22:54;;;;;;;;;23.50;23.50;;;;;29.99;35.82;98348.19;6162349;28;96930;-60
2022/09/10 12:25:59;;;;;;;;;22.50;22.50;;;;;30.07;36.02;98347.16;6162033;28;96787;-57
2022/09/10 12:29:05;;;;;;;;;27.60;27.00;;;;;30.15;36.14;98350.91;6174044;28;97224;-58
2022/09/10 12:32:29;;;;;;;;;24.00;23.60;;;;;30.21;35.56;98349.44;6161975;28;97750;-58
2022/09/10 12:35:45;;;;;;;;;21.00;21.00;;;;;30.27;35.26;98334.09;6161495;28;98078;-59
2022/09/10 12:39:16;;;;;;;;;29.80;29.80;;;;;30.37;36.16;98322.38;6161395;28;97402;-57
2022/09/10 12:42:31;;;;;;;;;21.00;21.00;;;;;30.52;37.01;98327.91;6159605;28;97071;-60
2022/09/10 12:46:04;;;;;;;;;20.25;20.25;;;;;30.64;36.92;98321.41;6161303;28;97048;-59
2022/09/10 12:49:13;;;;;;;;;24.20;24.20;;;;;30.72;36.39;98323.13;6160355;28;97505;-58
2022/09/10 12:52:28;;;;;;;;;19.60;19.60;;;;;30.72;36.65;98319.53;6166854;28;96955;-59
2022/09/10 12:55:43;;;;;;;;;22.50;22.50;;;;;30.61;36.49;98318.53;6167157;28;97063;-58
2022/09/10 12:59:14;;;;;;;;;25.60;25.60;;;;;30.43;36.24;98316.19;6166031;28;96852;-60
2022/09/10 13:02:29;;;;;;;;;22.00;21.20;;;;;30.21;36.94;98321.63;6161085;28;97628;-58
2022/09/10 13:05:49;;;;;;;;;20.25;20.25;;;;;29.96;37.42;98309.97;6165953;28;97395;-57
2022/09/10 13:08:52;;;;;;;;;32.50;31.50;;;;;29.69;37.69;98312.53;6165095;28;97434;-56
2022/09/10 13:12:02;;;;;;;;;25.20;24.80;;;;;29.46;38.12;98325.47;6160841;28;97148;-60
2022/09/10 13:15:16;;;;;;;;;31.00;30.00;;;;;29.18;38.60;98317.19;6165013;28;97111;-54
2022/09/10 13:18:26;;;;;;;;;27.40;27.40;;;;;28.94;39.13;98309.03;6163140;28;97222;-59
2022/09/10 13:21:53;;;;;;;;;26.25;26.25;;;;;28.75;38.98;98309.72;6162436;28;97417;-57
2022/09/10 13:25:03;;;;;;;;;15.80;15.80;;;;;28.61;39.37;98302.94;6159752;28;96865;-58
2022/09/10 13:28:42;;;;;;;;;24.00;23.50;;;;;28.43;39.27;98306.03;6165551;28;96851;-58
2022/09/10 13:31:47;;;;;;;;;29.00;28.20;;;;;28.32;39.60;98285.50;6118903;28;97089;-58
2022/09/10 13:35:09;;;;;;;;;41.60;36.60;;;;;28.32;39.98;98302.16;6164254;28;97640;-58
2022/09/10 13:38:46;;;;;;;;;18.00;17.40;;;;;28.33;40.86;98289.91;6164770;28;97481;-59
2022/09/10 13:42:13;;;;;;;;;27.00;27.00;;;;;28.31;41.42;98296.94;6163226;28;97000;-57
2022/09/10 13:45:25;;;;;;;;;28.25;28.25;;;;;28.27;41.39;98290.50;6164908;28;97440;-57
2022/09/10 13:48:40;;;;;;;;;30.60;30.00;;;;;28.29;41.57;98297.31;6164029;28;97099;-58
2022/09/10 13:51:51;;;;;;;;;35.00;32.60;;;;;28.32;41.04;98285.50;6161997;28;98584;-55
2022/09/10 13:54:57;;;;;;;;;26.60;26.40;;;;;28.29;41.40;98285.41;6164258;28;98620;-57
2022/09/10 13:58:08;;;;;;;;;28.40;28.40;;;;;28.30;41.71;98284.25;6164101;28;96952;-58
2022/09/10 14:01:11;;;;;;;;;31.00;30.00;;;;;28.25;41.47;98288.06;6165286;28;96913;-60
2022/09/10 14:04:23;;;;;;;;;30.50;29.50;;;;;28.17;40.83;98291.00;6162543;28;97637;-59
2022/09/10 14:07:28;;;;;;;;;35.00;33.00;;;;;28.01;40.73;98288.13;6165381;28;97105;-57
2022/09/10 14:10:48;;;;;;;;;27.00;27.00;;;;;27.93;41.49;98289.88;6165365;28;96499;-58
2022/09/10 14:13:57;;;;;;;;;25.75;25.00;;;;;27.88;41.74;98283.78;6164739;28;96583;-57
2022/09/10 14:17:04;;;;;;;;;33.60;32.00;;;;;27.80;41.20;98281.97;6165595;28;96516;-60
2022/09/10 14:20:18;;;;;;;;;36.00;33.00;;;;;27.78;42.51;98282.28;6165492;28;97088;-57
2022/09/10 14:23:23;;;;;;;;;30.00;29.60;;;;;27.78;42.22;98281.47;6152188;28;97686;-59
2022/09/10 14:26:29;;;;;;;;;33.75;32.00;;;;;27.75;42.46;98271.13;6160067;28;98647;-57
2022/09/10 14:29:32;;;;;;;;;38.40;34.40;;;;;27.70;42.28;98280.47;6163589;28;96698;-59